Time;durP1;ratioP1;P1;durP2;ratioP2;P2;SDS_P1;SDS_P2;PMS_P1;PMS_P2;Temp;Humidity;BMP_temperature;BMP_pressure;BME280_temperature;BME280_humidity;BME280_pressure;Samples;Min_cycle;Max_cycle;Signal;HPM_P1;HPM_P2
2023/04/01 00:01:24;;;;;;;4.40;1.50;;;;;;;9.77;63.35;94955.84;4971513;28;20413;-67
2023/04/01 00:03:49;;;;;;;4.10;1.47;;;;;;;9.72;63.49;94971.00;4971297;28;20276;-69
2023/04/01 00:06:17;;;;;;;1.67;1.20;;;;;;;9.84;63.89;94967.59;4970837;28;20184;-68
2023/04/01 00:08:44;;;;;;;3.53;1.60;;;;;;;9.71;64.09;94956.25;4971266;28;20289;-67
2023/04/01 00:11:09;;;;;;;3.17;1.17;;;;;;;9.87;63.30;94959.53;4971221;28;20452;-66
2023/04/01 00:13:35;;;;;;;2.60;1.33;;;;;;;9.77;63.51;94963.69;4971293;28;20427;-67
2023/04/01 00:16:01;;;;;;;2.47;1.30;;;;;;;9.80;63.38;94960.88;4971128;28;20177;-67
2023/04/01 00:18:26;;;;;;;3.57;1.10;;;;;;;9.79;64.04;94958.38;4971122;28;20436;-66
2023/04/01 00:20:53;;;;;;;2.50;1.20;;;;;;;9.75;64.39;94970.81;4971056;28;20590;-67
2023/04/01 00:23:19;;;;;;;2.97;1.80;;;;;;;9.77;63.79;94970.72;4970897;28;20208;-66
2023/04/01 00:25:47;;;;;;;1.87;1.03;;;;;;;9.66;64.51;94969.63;4970529;28;20494;-66
2023/04/01 00:28:14;;;;;;;3.57;1.20;;;;;;;9.69;63.97;94973.84;4970567;28;20490;-68
2023/04/01 00:30:40;;;;;;;2.07;1.27;;;;;;;9.74;64.28;94966.53;4970569;28;20452;-67
2023/04/01 00:33:05;;;;;;;3.67;1.63;;;;;;;9.69;64.18;94961.56;4970771;28;20787;-67
2023/04/01 00:35:32;;;;;;;1.60;1.17;;;;;;;9.65;64.64;94961.84;4970629;28;20169;-66
2023/04/01 00:37:57;;;;;;;6.83;1.53;;;;;;;9.64;65.26;94963.66;4970293;28;20705;-67
2023/04/01 00:40:32;;;;;;;1.87;1.20;;;;;;;9.57;65.80;94951.88;4970321;28;20465;-65
2023/04/01 00:42:58;;;;;;;6.83;2.00;;;;;;;9.65;65.15;94948.75;4970603;28;20165;-66
2023/04/01 00:45:37;;;;;;;3.90;1.40;;;;;;;9.67;65.28;94957.38;4970446;28;20798;-71
2023/04/01 00:48:10;;;;;;;3.07;1.57;;;;;;;9.66;65.40;94955.66;4969968;28;20189;-66
2023/04/01 00:50:39;;;;;;;2.00;1.47;;;;;;;9.62;65.41;94949.81;4970587;28;20904;-66
2023/04/01 00:53:06;;;;;;;4.83;1.97;;;;;;;9.58;65.22;94963.19;4970504;28;20945;-66
2023/04/01 00:55:35;;;;;;;1.73;1.63;;;;;;;9.52;65.46;94967.88;4970256;28;20902;-65
2023/04/01 00:58:03;;;;;;;3.43;1.67;;;;;;;9.53;66.02;94950.38;4969837;28;20853;-68
2023/04/01 01:00:28;;;;;;;3.43;1.50;;;;;;;9.51;66.29;94952.25;4969853;28;20410;-65
2023/04/01 01:02:54;;;;;;;4.13;1.60;;;;;;;9.61;65.49;94944.66;4970035;28;20419;-67
2023/04/01 01:05:26;;;;;;;2.20;1.00;;;;;;;9.66;65.22;94943.44;4970253;28;20200;-67
2023/04/01 01:08:14;;;;;;;2.23;1.40;;;;;;;9.40;66.25;94950.31;4969860;28;20699;-67
2023/04/01 01:10:42;;;;;;;4.87;1.50;;;;;;;9.56;64.87;94950.19;4968254;28;20566;-67
2023/04/01 01:13:17;;;;;;;2.00;1.43;;;;;;;9.51;65.50;94945.22;4970066;28;20436;-69
2023/04/01 01:15:52;;;;;;;1.50;1.30;;;;;;;9.56;64.93;94944.09;4969818;28;20407;-67
2023/04/01 01:18:33;;;;;;;4.43;1.40;;;;;;;9.48;65.52;94939.38;4969701;28;20424;-66
2023/04/01 01:21:19;;;;;;;5.47;1.27;;;;;;;9.49;65.11;94941.88;4969819;28;20488;-68
2023/04/01 01:24:02;;;;;;;5.70;1.40;;;;;;;9.55;64.60;94930.19;4969730;28;20850;-69
2023/04/01 01:27:05;;;;;;;2.33;0.90;;;;;;;9.54;64.82;94934.59;4969408;28;20409;-67
2023/04/01 01:30:12;;;;;;;1.70;0.97;;;;;;;9.47;65.08;94935.03;4969467;28;20401;-66
2023/04/01 01:33:02;;;;;;;2.70;1.30;;;;;;;9.43;65.27;94934.41;4949136;29;20896;-66
2023/04/01 01:35:57;;;;;;;7.20;1.53;;;;;;;9.33;65.73;94935.94;4950106;29;20425;-66
2023/04/01 01:38:27;;;;;;;1.53;0.97;;;;;;;9.45;64.80;94948.25;4949929;29;20823;-66
2023/04/01 01:40:57;;;;;;;3.97;1.43;;;;;;;9.29;65.29;94942.28;4949782;29;20454;-66
2023/04/01 01:43:27;;;;;;;1.50;1.10;;;;;;;9.29;65.76;94940.50;4950037;29;20410;-66
2023/04/01 01:45:55;;;;;;;2.40;1.30;;;;;;;9.36;64.98;94954.06;4949620;28;20436;-66
2023/04/01 01:48:23;;;;;;;3.80;1.10;;;;;;;9.37;64.76;94941.81;4949802;29;20824;-65
2023/04/01 01:50:49;;;;;;;1.67;1.07;;;;;;;9.43;65.52;94944.06;4949802;29;20493;-67
2023/04/01 01:53:15;;;;;;;3.10;1.00;;;;;;;9.37;65.36;94933.94;4949878;29;20477;-67
2023/04/01 01:55:43;;;;;;;2.27;1.00;;;;;;;9.27;65.14;94938.94;4950101;29;20425;-65
2023/04/01 01:58:11;;;;;;;2.33;1.20;;;;;;;9.32;64.92;94939.47;4949093;28;20202;-66
2023/04/01 02:00:38;;;;;;;2.13;0.93;;;;;;;9.18;65.38;94953.41;4949601;29;20493;-65
2023/04/01 02:03:04;;;;;;;1.23;1.00;;;;;;;9.20;65.77;94946.31;4950086;29;20410;-66
2023/04/01 02:05:31;;;;;;;5.33;1.20;;;;;;;9.19;65.00;94941.16;4949661;29;20947;-65
2023/04/01 02:08:03;;;;;;;4.10;1.40;;;;;;;9.12;65.46;94932.88;4949325;28;20437;-66
2023/04/01 02:10:35;;;;;;;5.50;1.10;;;;;;;9.22;65.04;94927.91;4949982;29;20489;-65
2023/04/01 02:13:07;;;;;;;2.53;1.20;;;;;;;9.16;65.89;94933.50;4949617;29;21081;-65
2023/04/01 02:15:37;;;;;;;2.67;1.20;;;;;;;9.07;65.33;94940.13;4949372;29;20438;-66
2023/04/01 02:18:04;;;;;;;1.77;1.03;;;;;;;9.06;65.65;94936.69;4949246;28;20434;-66
2023/04/01 02:20:30;;;;;;;2.90;1.10;;;;;;;9.23;65.41;94942.66;4949279;29;20432;-66
2023/04/01 02:22:59;;;;;;;2.47;1.27;;;;;;;9.24;64.59;94936.50;4948961;29;20414;-66
2023/04/01 02:25:33;;;;;;;1.67;0.93;;;;;;;9.21;65.35;94936.69;4947684;28;20874;-66
2023/04/01 02:28:00;;;;;;;1.30;0.90;;;;;;;9.26;65.00;94942.47;4948856;28;20442;-67
2023/04/01 02:30:33;;;;;;;3.00;1.10;;;;;;;9.19;65.67;94936.78;4951921;28;20502;-66
2023/04/01 02:32:59;;;;;;;4.23;1.20;;;;;;;9.17;65.57;94935.19;4968493;28;20565;-66
2023/04/01 02:35:26;;;;;;;7.40;1.47;;;;;;;9.28;64.86;94940.59;4968127;28;20417;-66
2023/04/01 02:37:53;;;;;;;3.40;0.97;;;;;;;9.16;65.17;94951.81;4967866;28;20443;-65
2023/04/01 02:40:19;;;;;;;1.30;1.00;;;;;;;9.16;65.00;94957.06;4968010;28;20778;-66
2023/04/01 02:42:45;;;;;;;2.23;0.90;;;;;;;9.15;64.95;94947.53;4968361;28;20421;-66
2023/04/01 02:45:12;;;;;;;1.77;1.20;;;;;;;9.14;64.71;94951.06;4968149;28;20275;-66
2023/04/01 02:47:37;;;;;;;3.33;1.13;;;;;;;9.07;64.50;94967.16;4967863;28;20468;-67
2023/04/01 02:50:04;;;;;;;3.10;1.10;;;;;;;9.02;65.41;94957.91;4967951;28;20531;-66
2023/04/01 02:52:29;;;;;;;2.70;1.03;;;;;;;8.87;65.73;94949.22;4968109;28;20177;-67
2023/04/01 02:54:56;;;;;;;1.60;1.07;;;;;;;9.02;65.59;94948.25;4967925;28;20906;-66
2023/04/01 02:57:22;;;;;;;1.30;0.70;;;;;;;8.93;65.40;94954.09;4967627;28;20194;-66
2023/04/01 02:59:47;;;;;;;2.30;1.70;;;;;;;9.00;65.02;94965.84;4967987;28;20439;-66
2023/04/01 03:02:13;;;;;;;1.20;0.80;;;;;;;9.01;65.24;94969.31;4967884;28;20207;-66
2023/04/01 03:04:38;;;;;;;3.03;1.47;;;;;;;9.04;64.66;94971.72;4967949;28;20170;-66
2023/04/01 03:07:04;;;;;;;1.93;0.80;;;;;;;9.01;65.53;94967.53;4967739;28;20280;-66
2023/04/01 03:09:29;;;;;;;1.00;0.80;;;;;;;8.96;65.32;94963.53;4967711;28;20190;-66
2023/04/01 03:11:55;;;;;;;1.60;0.90;;;;;;;9.10;64.70;94953.88;4967398;28;20193;-68
2023/04/01 03:14:20;;;;;;;1.27;0.80;;;;;;;9.14;64.57;94961.53;4967988;28;20691;-68
2023/04/01 03:16:46;;;;;;;1.97;1.00;;;;;;;9.08;64.76;94962.78;4967422;28;20247;-67
2023/04/01 03:19:11;;;;;;;1.33;1.23;;;;;;;9.04;64.48;94963.88;4967980;28;20508;-66
2023/04/01 03:21:37;;;;;;;67.83;6.87;;;;;;;9.02;65.29;94961.34;4967980;28;20169;-67
2023/04/01 03:24:02;;;;;;;4.60;1.00;;;;;;;9.09;64.22;94972.28;4967935;28;20181;-67
2023/04/01 03:26:28;;;;;;;1.27;0.80;;;;;;;8.93;65.77;94964.56;4967711;28;20243;-67
2023/04/01 03:28:53;;;;;;;2.60;1.27;;;;;;;8.80;66.24;94969.66;4967709;28;20202;-67
2023/04/01 03:31:19;;;;;;;1.70;0.93;;;;;;;8.95;65.58;94970.50;4967558;28;20616;-66
2023/04/01 03:33:44;;;;;;;2.90;0.80;;;;;;;8.90;65.81;94973.44;4967658;28;20177;-66
2023/04/01 03:36:12;;;;;;;1.10;0.60;;;;;;;9.01;65.40;94972.75;4967542;28;20806;-67
2023/04/01 03:38:39;;;;;;;1.77;0.73;;;;;;;8.90;65.46;94980.41;4967696;28;20686;-66
2023/04/01 03:41:05;;;;;;;1.40;0.80;;;;;;;8.84;66.03;94976.41;4967664;28;20452;-67
2023/04/01 03:43:32;;;;;;;1.00;0.80;;;;;;;8.87;66.50;94978.81;4967743;28;20427;-67
2023/04/01 03:45:57;;;;;;;1.20;0.77;;;;;;;8.84;66.14;94979.00;4967194;28;20800;-67
2023/04/01 03:48:23;;;;;;;0.93;0.70;;;;;;;8.86;66.69;94981.56;4967491;28;20507;-68
2023/04/01 03:50:48;;;;;;;1.70;1.00;;;;;;;8.76;67.54;94972.53;4967396;28;20288;-67
2023/04/01 03:53:15;;;;;;;1.20;0.70;;;;;;;8.73;67.88;94967.50;4967274;28;20177;-67
2023/04/01 03:55:40;;;;;;;2.37;0.90;;;;;;;8.77;67.54;94982.94;4967262;28;20200;-66
2023/04/01 03:58:07;;;;;;;1.50;0.80;;;;;;;8.75;67.46;94981.34;4967142;28;20444;-67
2023/04/01 04:00:33;;;;;;;3.07;0.90;;;;;;;8.72;68.29;94971.91;4967552;28;20170;-67
2023/04/01 04:02:59;;;;;;;1.50;0.80;;;;;;;8.80;67.38;94977.50;4967323;28;20424;-67
2023/04/01 04:05:25;;;;;;;4.43;0.93;;;;;;;8.85;67.68;94969.38;4967430;28;20421;-67
2023/04/01 04:07:51;;;;;;;2.80;1.67;;;;;;;8.81;67.42;94967.88;4966974;28;20291;-67
2023/04/01 04:10:16;;;;;;;1.30;0.80;;;;;;;8.82;67.85;94980.88;4967404;28;20495;-67
2023/04/01 04:12:42;;;;;;;1.93;0.80;;;;;;;8.81;67.81;94973.97;4967471;28;20722;-67
2023/04/01 04:15:08;;;;;;;1.47;0.87;;;;;;;8.81;68.54;94979.22;4967532;28;20748;-67
2023/04/01 04:17:34;;;;;;;1.00;0.70;;;;;;;8.82;68.45;94975.66;4967140;28;20197;-66
2023/04/01 04:19:59;;;;;;;2.90;0.77;;;;;;;8.95;68.16;94964.44;4967363;28;20423;-68
2023/04/01 04:22:25;;;;;;;2.03;0.80;;;;;;;8.83;68.29;94963.41;4969226;28;20174;-67
2023/04/01 04:24:50;;;;;;;9.30;1.70;;;;;;;8.90;68.14;94970.81;4970666;28;20217;-65
2023/04/01 04:27:16;;;;;;;4.13;2.00;;;;;;;8.99;67.81;94964.16;4970376;28;20197;-67
2023/04/01 04:29:41;;;;;;;6.40;1.27;;;;;;;8.84;67.98;94965.09;4970521;28;20174;-66
2023/04/01 04:32:07;;;;;;;3.30;1.10;;;;;;;8.88;67.96;94964.81;4970616;28;20173;-66
2023/04/01 04:34:32;;;;;;;2.40;1.20;;;;;;;8.71;69.12;94951.91;4970753;28;20260;-67
2023/04/01 04:36:58;;;;;;;1.33;0.93;;;;;;;8.77;67.93;94966.41;4970094;28;20287;-68
2023/04/01 04:39:23;;;;;;;2.13;1.40;;;;;;;8.74;68.67;94953.50;4970358;28;20674;-67
2023/04/01 04:41:49;;;;;;;1.47;1.00;;;;;;;8.83;68.29;94958.16;4970351;28;20182;-67
2023/04/01 04:44:14;;;;;;;5.17;1.43;;;;;;;8.93;67.93;94946.25;4970517;28;20173;-68
2023/04/01 04:46:40;;;;;;;2.30;1.30;;;;;;;8.85;67.59;94954.53;4970102;28;20185;-67
2023/04/01 04:49:06;;;;;;;2.33;1.40;;;;;;;8.97;66.79;94958.19;4970281;28;20558;-66
2023/04/01 04:51:35;;;;;;;2.90;1.20;;;;;;;8.87;67.98;94954.44;4970193;28;20206;-67
2023/04/01 04:54:02;;;;;;;1.73;1.20;;;;;;;8.89;67.02;94956.03;4969987;28;20423;-67
2023/04/01 04:56:28;;;;;;;2.00;1.10;;;;;;;8.91;66.35;94950.72;4969724;28;20424;-67
2023/04/01 04:58:54;;;;;;;1.40;0.80;;;;;;;8.96;66.72;94953.06;4969942;28;20998;-67
2023/04/01 05:01:20;;;;;;;1.57;0.90;;;;;;;8.90;66.55;94960.34;4970021;28;20169;-66
2023/04/01 05:03:46;;;;;;;2.60;1.00;;;;;;;8.85;66.31;94954.53;4968405;28;21097;-66
2023/04/01 05:06:14;;;;;;;1.30;0.80;;;;;;;8.92;66.40;94956.78;4969644;28;20236;-66
2023/04/01 05:08:41;;;;;;;2.73;0.90;;;;;;;8.90;65.44;94954.25;4969858;28;20495;-67
2023/04/01 05:11:11;;;;;;;14.33;2.50;;;;;;;8.94;65.35;94952.31;4969919;28;20997;-67
2023/04/01 05:13:36;;;;;;;3.23;1.23;;;;;;;8.97;65.90;94950.31;4969969;28;21116;-67
2023/04/01 05:16:02;;;;;;;3.30;1.10;;;;;;;8.92;65.65;94957.63;4969734;28;20565;-66
2023/04/01 05:18:28;;;;;;;1.27;1.00;;;;;;;9.05;65.47;94949.88;4969906;28;20687;-66
2023/04/01 05:20:54;;;;;;;3.47;1.90;;;;;;;8.94;65.68;94953.13;4969811;28;20668;-66
2023/04/01 05:23:21;;;;;;;11.73;1.67;;;;;;;8.89;66.04;94956.03;4969809;28;20176;-68
2023/04/01 05:25:53;;;;;;;2.60;1.00;;;;;;;8.88;65.37;94959.59;4969701;28;20419;-66
2023/04/01 05:28:20;;;;;;;1.90;0.90;;;;;;;8.91;65.22;94966.41;4969629;28;20866;-68
2023/04/01 05:30:46;;;;;;;3.37;1.00;;;;;;;8.94;65.51;94954.91;4969460;28;20453;-66
2023/04/01 05:33:13;;;;;;;2.13;1.27;;;;;;;9.03;64.88;94968.28;4968815;28;20531;-67
2023/04/01 05:35:39;;;;;;;2.23;1.23;;;;;;;8.82;66.43;94966.97;4969233;28;20867;-67
2023/04/01 05:38:05;;;;;;;3.83;1.20;;;;;;;8.89;65.85;94963.03;4969134;28;21209;-66
2023/04/01 05:40:31;;;;;;;1.77;1.13;;;;;;;8.83;nan;94968.63;4969315;28;20518;-66
2023/04/01 05:42:58;;;;;;;2.20;1.10;;;;;;;9.05;65.26;94963.81;4967866;28;20190;-69
2023/04/01 05:45:23;;;;;;;2.97;1.10;;;;;;;8.98;65.37;94961.66;4988509;28;20511;-66
2023/04/01 05:47:49;;;;;;;7.80;1.70;;;;;;;8.94;66.59;94966.22;4988195;28;21000;-66
2023/04/01 05:50:15;;;;;;;4.13;1.20;;;;;;;8.94;66.58;94961.00;4988636;28;20200;-65
2023/04/01 05:52:40;;;;;;;1.73;1.27;;;;;;;9.03;66.38;94962.22;4988724;28;20181;-66
2023/04/01 05:55:06;;;;;;;2.60;0.97;;;;;;;9.06;66.61;94960.22;4988566;28;20456;-69
2023/04/01 05:57:31;;;;;;;5.53;3.17;;;;;;;9.11;66.68;94952.94;4988125;28;20200;-68
2023/04/01 05:59:57;;;;;;;2.27;1.23;;;;;;;9.15;66.62;94958.84;4988461;28;20165;-67
2023/04/01 06:02:23;;;;;;;5.30;1.20;;;;;;;9.18;65.79;94956.03;4988589;28;20188;-67
2023/04/01 06:04:49;;;;;;;1.90;1.20;;;;;;;9.18;66.41;94952.56;5003304;28;20662;-67
2023/04/01 06:07:17;;;;;;;5.83;1.70;;;;;;;9.38;65.44;94951.31;4988126;28;20956;-66
2023/04/01 06:09:44;;;;;;;2.63;1.60;;;;;;;9.41;66.04;94949.38;4978088;28;20437;-66
2023/04/01 06:12:21;;;;;;;3.93;1.20;;;;;;;9.51;65.32;94942.59;4979321;28;20421;-67
2023/04/01 06:15:17;;;;;;;2.00;1.00;;;;;;;9.76;64.45;94938.44;4988483;28;20464;-65
2023/04/01 06:18:10;;;;;;;1.50;1.03;;;;;;;10.40;61.89;94945.72;4949258;28;20502;-68
2023/04/01 06:20:38;;;;;;;2.43;1.37;;;;;;;10.74;61.24;94946.88;4949544;28;20474;-67
2023/04/01 06:23:06;;;;;;;2.97;1.17;;;;;;;10.61;61.04;94939.03;4949774;28;20492;-67
2023/04/01 06:25:50;;;;;;;1.90;1.10;;;;;;;10.45;61.52;94946.25;4972498;28;20444;-67
2023/04/01 06:28:36;;;;;;;2.70;1.10;;;;;;;10.27;62.30;94943.84;4964537;28;20490;-67
2023/04/01 06:31:10;;;;;;;3.83;1.60;;;;;;;10.09;62.48;94948.53;4978857;28;20984;-67
2023/04/01 06:34:00;;;;;;;2.03;1.00;;;;;;;10.11;61.65;94946.66;4968600;28;20421;-66
2023/04/01 06:36:49;;;;;;;1.47;0.90;;;;;;;10.45;60.80;94954.94;4968545;28;20472;-66
2023/04/01 06:39:41;;;;;;;2.57;1.10;;;;;;;10.98;58.82;94947.00;4968679;28;20421;-67
2023/04/01 06:42:25;;;;;;;4.40;1.33;;;;;;;11.34;57.13;94950.63;4976462;28;20953;-67
2023/04/01 06:45:21;;;;;;;3.13;1.23;;;;;;;10.94;58.42;94951.63;4979560;28;20419;-66
2023/04/01 06:48:14;;;;;;;3.80;1.27;;;;;;;10.83;58.06;94950.69;4980725;28;20969;-66
2023/04/01 06:51:09;;;;;;;3.40;0.77;;;;;;;10.67;58.09;94954.34;4968754;28;20564;-66
2023/04/01 06:53:53;;;;;;;2.03;0.80;;;;;;;10.47;58.41;94953.06;4968389;28;20763;-66
2023/04/01 06:56:21;;;;;;;2.20;0.90;;;;;;;10.42;58.58;94962.16;4968387;28;20484;-66
2023/04/01 06:59:11;;;;;;;1.63;0.70;;;;;;;10.89;57.22;94955.50;4968270;28;20467;-65
2023/04/01 07:02:09;;;;;;;3.63;1.00;;;;;;;10.80;57.34;94947.31;4957170;28;20440;-65
2023/04/01 07:04:44;;;;;;;1.50;0.80;;;;;;;10.91;56.75;94948.38;4967998;28;21030;-66
2023/04/01 07:07:27;;;;;;;2.90;0.80;;;;;;;10.63;57.35;94947.63;4967839;28;20576;-67
2023/04/01 07:09:58;;;;;;;2.50;0.80;;;;;;;10.49;57.88;94948.56;4970209;28;20442;-67
2023/04/01 07:12:35;;;;;;;2.63;1.10;;;;;;;10.43;58.24;94953.38;4977559;28;20424;-68
2023/04/01 07:15:15;;;;;;;2.40;1.00;;;;;;;10.26;58.69;94954.44;4987527;28;20432;-67
2023/04/01 07:17:43;;;;;;;1.90;1.27;;;;;;;10.20;59.27;94952.22;4969004;28;20476;-68
2023/04/01 07:20:28;;;;;;;1.00;0.80;;;;;;;10.16;59.52;94954.22;4968132;28;20405;-66
2023/04/01 07:22:59;;;;;;;1.20;0.80;;;;;;;10.25;59.64;94950.13;4967848;28;20416;-67
2023/04/01 07:25:29;;;;;;;2.53;0.93;;;;;;;10.20;59.52;94958.28;4967797;28;20576;-66
2023/04/01 07:28:05;;;;;;;1.50;0.80;;;;;;;10.23;60.14;94944.16;4967621;28;20515;-68
2023/04/01 07:30:50;;;;;;;2.37;1.07;;;;;;;10.29;59.42;94952.47;4967512;28;20460;-66
2023/04/01 07:33:24;;;;;;;5.27;1.00;;;;;;;10.30;59.65;94945.44;4954135;28;21017;-65
2023/04/01 07:36:01;;;;;;;4.00;1.07;;;;;;;10.24;60.03;94949.28;4962984;28;20447;-66
2023/04/01 07:38:46;;;;;;;1.80;0.97;;;;;;;10.34;59.46;94954.81;4979657;28;20432;-66
2023/04/01 07:41:23;;;;;;;2.93;1.00;;;;;;;10.36;59.94;94952.94;4975770;28;20451;-64
2023/04/01 07:44:10;;;;;;;3.37;1.67;;;;;;;10.32;60.24;94951.44;4978154;28;20526;-65
2023/04/01 07:46:48;;;;;;;1.30;0.80;;;;;;;10.28;60.26;94948.19;4972965;28;20820;-65
2023/04/01 07:49:21;;;;;;;2.27;1.00;;;;;;;10.26;60.51;94942.19;4966524;28;20421;-66
2023/04/01 07:52:35;;;;;;;2.13;1.83;;;;;;;10.33;59.94;94948.72;4975599;28;20480;-67
2023/04/01 07:55:03;;;;;;;2.80;0.83;;;;;;;10.17;60.18;94948.03;4945987;28;20547;-66
2023/04/01 07:57:56;;;;;;;7.50;1.67;;;;;;;10.30;60.13;94948.94;4950166;28;20473;-67
2023/04/01 08:00:44;;;;;;;1.50;0.90;;;;;;;10.22;59.77;94950.34;4950653;28;20520;-65
2023/04/01 08:03:15;;;;;;;1.33;0.90;;;;;;;10.30;60.02;94946.31;4951018;28;20476;-67
2023/04/01 08:05:57;;;;;;;2.30;1.10;;;;;;;10.38;59.39;94951.88;4952226;28;20517;-66
2023/04/01 08:09:07;;;;;;;2.23;1.00;;;;;;;10.26;59.67;94954.44;4951832;28;20786;-67
2023/04/01 08:11:44;;;;;;;2.40;0.90;;;;;;;10.16;60.03;94951.59;4951606;28;20474;-66
2023/04/01 08:14:26;;;;;;;1.50;0.80;;;;;;;10.23;59.33;94947.63;4951972;28;20418;-67
2023/04/01 08:17:44;;;;;;;3.17;1.07;;;;;;;10.22;60.23;94953.78;4951573;28;20873;-66
2023/04/01 08:20:34;;;;;;;2.00;1.00;;;;;;;10.18;60.27;94963.66;4950813;28;20915;-67
2023/04/01 08:23:21;;;;;;;7.33;1.30;;;;;;;10.28;59.75;94949.94;4951842;28;20504;-66
2023/04/01 08:26:07;;;;;;;1.00;0.70;;;;;;;10.34;59.57;94944.31;4951695;28;20752;-67
2023/04/01 08:28:42;;;;;;;1.53;1.20;;;;;;;10.31;59.33;94945.34;4951601;28;20437;-66
2023/04/01 08:31:16;;;;;;;0.90;0.70;;;;;;;10.27;59.80;94953.50;4959829;28;20480;-66
2023/04/01 08:33:44;;;;;;;6.50;0.80;;;;;;;10.36;60.31;94955.53;4970862;28;20903;-66
2023/04/01 08:36:21;;;;;;;3.27;1.07;;;;;;;10.40;60.00;94943.09;4985032;28;20744;-66
2023/04/01 08:39:15;;;;;;;3.00;0.80;;;;;;;10.34;59.22;94944.31;4970801;28;20949;-66
2023/04/01 08:41:59;;;;;;;2.40;0.90;;;;;;;10.34;59.57;94939.91;4967063;28;20441;-66
2023/04/01 08:44:46;;;;;;;2.50;0.90;;;;;;;10.28;59.16;94940.31;4967926;28;20419;-67
2023/04/01 08:47:46;;;;;;;1.40;0.90;;;;;;;10.27;59.74;94927.28;4967319;28;20520;-65
2023/04/01 08:50:26;;;;;;;1.13;0.90;;;;;;;10.31;59.54;94942.75;4967457;28;20456;-66
2023/04/01 08:53:10;;;;;;;2.20;1.00;;;;;;;10.26;60.01;94936.94;4967137;28;20420;-66
2023/04/01 08:55:36;;;;;;;3.60;1.13;;;;;;;10.24;61.16;94951.09;4966904;28;20760;-66
2023/04/01 08:58:16;;;;;;;5.13;1.00;;;;;;;10.23;61.45;94946.75;4967302;28;20436;-65
2023/04/01 09:00:56;;;;;;;3.30;1.00;;;;;;;10.34;60.37;94949.56;4966691;28;20596;-67
2023/04/01 09:03:41;;;;;;;1.20;1.03;;;;;;;10.29;60.49;94952.47;4967819;28;20452;-66
2023/04/01 09:06:29;;;;;;;1.73;0.87;;;;;;;10.13;60.79;94952.63;4967121;28;20449;-67
2023/04/01 09:09:14;;;;;;;1.17;0.73;;;;;;;10.25;60.69;94952.75;4965467;28;20432;-67
2023/04/01 09:12:01;;;;;;;1.97;1.00;;;;;;;10.18;61.38;94957.56;4966469;28;20463;-65
2023/04/01 09:14:57;;;;;;;2.20;2.03;;;;;;;10.28;61.25;94952.56;4967197;28;20493;-67
2023/04/01 09:17:56;;;;;;;3.77;1.00;;;;;;;10.16;62.95;94962.09;4966659;28;20475;-67
2023/04/01 09:20:44;;;;;;;2.33;0.90;;;;;;;10.19;62.25;94961.88;4967139;28;20409;-67
2023/04/01 09:23:30;;;;;;;1.93;0.80;;;;;;;10.18;62.13;94968.03;4967410;28;20427;-66
2023/04/01 09:26:30;;;;;;;1.40;1.00;;;;;;;10.13;62.05;94963.13;4966368;28;20407;-67
2023/04/01 09:29:01;;;;;;;3.00;0.90;;;;;;;10.04;61.65;94957.59;4966598;28;20428;-66
2023/04/01 09:31:26;;;;;;;1.30;0.83;;;;;;;10.06;61.67;94960.97;4966935;28;20464;-67
2023/04/01 09:34:20;;;;;;;2.90;1.10;;;;;;;9.96;61.83;94951.09;4966165;28;20425;-67
2023/04/01 09:36:46;;;;;;;1.70;1.07;;;;;;;10.11;61.98;94946.66;4966256;28;20181;-66
2023/04/01 09:39:32;;;;;;;1.20;0.90;;;;;;;10.02;60.84;94962.13;4966752;28;20846;-66
2023/04/01 09:42:14;;;;;;;3.20;1.07;;;;;;;10.16;60.63;94955.06;4965272;28;20452;-67
2023/04/01 09:45:05;;;;;;;2.53;1.43;;;;;;;10.04;61.21;94955.00;4966549;28;20425;-67
2023/04/01 09:47:45;;;;;;;1.30;0.90;;;;;;;10.08;60.79;94951.25;4966662;28;20440;-65
2023/04/01 09:50:32;;;;;;;1.13;0.90;;;;;;;10.09;60.62;94952.94;4966825;28;20456;-65
2023/04/01 09:53:03;;;;;;;1.87;1.00;;;;;;;10.01;61.31;94955.19;4966033;28;20413;-67
2023/04/01 09:55:47;;;;;;;1.83;1.27;;;;;;;10.04;62.12;94960.22;4966625;28;20933;-66
2023/04/01 09:58:46;;;;;;;3.40;1.00;;;;;;;10.02;61.65;94955.13;4965961;28;20801;-67
2023/04/01 10:01:56;;;;;;;2.70;0.90;;;;;;;10.05;61.75;94956.69;4966228;28;20493;-66
2023/04/01 10:04:36;;;;;;;2.70;1.17;;;;;;;9.99;62.55;94959.69;4965519;28;20491;-68
2023/04/01 10:07:22;;;;;;;2.03;1.20;;;;;;;10.05;61.47;94959.31;4965689;28;20416;-66
2023/04/01 10:10:17;;;;;;;1.43;0.97;;;;;;;10.05;61.05;94954.91;4965770;28;20404;-66
2023/04/01 10:13:06;;;;;;;2.43;1.00;;;;;;;9.99;61.18;94970.19;4965822;28;20432;-66
2023/04/01 10:15:58;;;;;;;2.20;0.90;;;;;;;9.92;61.49;94977.59;4965527;28;20432;-68
2023/04/01 10:18:36;;;;;;;1.20;1.10;;;;;;;9.87;62.11;94969.19;4965596;28;20453;-66
2023/04/01 10:21:14;;;;;;;1.20;0.90;;;;;;;9.92;61.94;94957.50;4964861;28;20416;-66
2023/04/01 10:24:04;;;;;;;3.70;1.00;;;;;;;10.00;61.72;94962.22;4965922;28;20420;-68
2023/04/01 10:26:59;;;;;;;1.60;1.20;;;;;;;10.02;61.86;94967.38;4965774;28;20985;-67
2023/04/01 10:29:43;;;;;;;1.70;1.27;;;;;;;9.86;62.51;94963.09;4965742;28;20432;-67
2023/04/01 10:32:27;;;;;;;1.20;0.90;;;;;;;10.06;62.82;94963.59;4968431;28;20542;-67
2023/04/01 10:35:07;;;;;;;1.83;0.80;;;;;;;10.17;61.96;94966.38;4968706;28;20615;-68
2023/04/01 10:37:38;;;;;;;1.67;1.20;;;;;;;10.25;60.97;94956.25;4968175;28;20939;-68
2023/04/01 10:40:25;;;;;;;1.33;1.13;;;;;;;10.30;61.02;94967.28;4968545;28;20891;-66
2023/04/01 10:43:00;;;;;;;1.10;0.90;;;;;;;10.22;60.65;94971.31;4968524;28;20452;-67
2023/04/01 10:45:45;;;;;;;1.77;1.03;;;;;;;10.19;60.74;94967.13;4968381;28;20420;-68
2023/04/01 10:48:55;;;;;;;1.27;0.80;;;;;;;10.15;61.19;94960.38;4968368;28;20489;-65
2023/04/01 10:51:46;;;;;;;0.90;0.80;;;;;;;10.13;61.92;94971.00;4927457;29;20557;-67
2023/04/01 10:54:15;;;;;;;2.40;0.70;;;;;;;10.04;62.16;94963.72;4927157;29;20427;-66
2023/04/01 10:57:22;;;;;;;1.97;0.83;;;;;;;10.17;62.65;94963.75;4953776;28;20914;-67
2023/04/01 11:00:06;;;;;;;1.40;1.07;;;;;;;10.26;62.70;94952.66;4926918;29;20422;-67
2023/04/01 11:03:02;;;;;;;1.40;0.80;;;;;;;10.37;61.72;94963.31;4926995;29;20470;-66
2023/04/01 11:05:49;;;;;;;1.50;1.10;;;;;;;10.28;61.10;94978.78;4959955;28;20480;-68
2023/04/01 11:08:33;;;;;;;2.07;0.90;;;;;;;10.32;61.09;94969.78;4968131;28;20438;-68
2023/04/01 11:11:22;;;;;;;1.83;1.10;;;;;;;10.36;61.85;94966.88;4968195;28;20522;-69
2023/04/01 11:14:12;;;;;;;1.53;1.00;;;;;;;10.35;61.24;94967.81;4968149;28;20437;-68
2023/04/01 11:17:15;;;;;;;5.67;2.30;;;;;;;10.34;62.46;94974.00;4967905;28;20397;-66
2023/04/01 11:20:34;;;;;;;2.27;1.00;;;;;;;10.32;63.24;94978.53;4968029;28;20417;-67
2023/04/01 11:23:03;;;;;;;1.40;0.77;;;;;;;10.31;62.97;94962.88;4926744;29;20411;-68
2023/04/01 11:25:56;;;;;;;3.43;0.93;;;;;;;10.24;63.32;94975.50;4965534;28;20978;-68
2023/04/01 11:28:35;;;;;;;2.50;0.90;;;;;;;10.22;64.24;94987.03;4966868;28;20451;-66
2023/04/01 11:31:22;;;;;;;1.67;0.83;;;;;;;10.21;64.97;94978.34;4968483;28;20467;-67
2023/04/01 11:33:56;;;;;;;1.30;0.93;;;;;;;10.30;62.84;94987.41;4972029;28;20412;-67
2023/04/01 11:37:06;;;;;;;2.53;0.83;;;;;;;10.32;62.91;94988.16;4971795;28;20485;-66
2023/04/01 11:40:02;;;;;;;1.10;0.87;;;;;;;10.29;64.13;94988.34;4971472;28;21022;-66
2023/04/01 11:42:46;;;;;;;1.23;0.90;;;;;;;10.13;64.10;94985.84;4972438;28;20431;-69
2023/04/01 11:45:22;;;;;;;1.30;1.00;;;;;;;10.04;63.31;94983.81;4972567;28;20420;-66
2023/04/01 11:47:56;;;;;;;1.90;1.20;;;;;;;10.04;65.00;94979.44;4971686;28;20440;-67
2023/04/01 11:50:46;;;;;;;7.27;1.60;;;;;;;10.20;63.94;94984.50;4970770;28;20458;-65
2023/04/01 11:53:35;;;;;;;3.07;1.00;;;;;;;10.11;65.71;94993.84;4972417;28;20417;-65
2023/04/01 11:56:22;;;;;;;4.13;1.00;;;;;;;10.16;64.83;94994.38;4971229;28;21282;-66
2023/04/01 11:59:25;;;;;;;1.37;1.10;;;;;;;10.12;64.89;94989.44;4971858;28;20520;-67
2023/04/01 12:02:01;;;;;;;1.10;0.90;;;;;;;10.22;64.71;94998.38;4972285;28;20435;-66
2023/04/01 12:04:38;;;;;;;3.20;0.90;;;;;;;10.29;64.28;95004.91;4971871;28;20420;-68
2023/04/01 12:07:41;;;;;;;1.60;1.00;;;;;;;10.37;64.91;94994.78;4971091;28;20500;-66
2023/04/01 12:10:41;;;;;;;1.10;0.90;;;;;;;10.42;63.75;94998.88;4971387;28;20444;-67
2023/04/01 12:13:25;;;;;;;1.60;0.83;;;;;;;10.50;63.49;94986.94;4959898;28;20431;-66
2023/04/01 12:16:15;;;;;;;6.53;0.90;;;;;;;10.45;63.31;94988.19;4971029;28;20451;-66
2023/04/01 12:18:40;;;;;;;1.70;1.07;;;;;;;10.46;63.47;94995.94;4971204;28;20428;-67
2023/04/01 12:21:32;;;;;;;1.47;0.90;;;;;;;10.40;63.59;94983.25;4971081;28;20588;-66